createdAt,value
2024-01-18T00:00:46.044Z,21.98
2024-01-18T00:01:45.994Z,21.97
2024-01-18T00:02:46.000Z,21.98
2024-01-18T00:03:46.284Z,21.97
2024-01-18T00:04:46.072Z,21.98
2024-01-18T00:05:46.023Z,21.97
2024-01-18T00:06:46.139Z,21.99
2024-01-18T00:07:46.013Z,21.98
2024-01-18T00:08:46.015Z,21.97
2024-01-18T00:09:46.008Z,21.99
2024-01-18T00:10:46.009Z,21.98
2024-01-18T00:11:46.025Z,21.99
2024-01-18T00:12:46.037Z,21.99
2024-01-18T00:13:46.033Z,21.99
2024-01-18T00:14:46.037Z,21.99
2024-01-18T00:15:46.114Z,21.98
2024-01-18T00:16:46.044Z,21.99
2024-01-18T00:17:46.164Z,21.99
2024-01-18T00:18:46.185Z,21.99
2024-01-18T00:19:46.194Z,22.01
2024-01-18T00:20:46.144Z,22.00
2024-01-18T00:21:46.154Z,22.00
2024-01-18T00:22:46.199Z,22.01
2024-01-18T00:23:46.243Z,22.00
2024-01-18T00:24:46.265Z,22.03
2024-01-18T00:25:46.286Z,22.01
2024-01-18T00:26:46.328Z,22.01
2024-01-18T00:27:46.441Z,22.01
2024-01-18T00:28:46.374Z,22.03
2024-01-18T00:29:46.403Z,22.02
2024-01-18T00:30:46.510Z,22.03
2024-01-18T00:31:46.466Z,22.02
2024-01-18T00:32:46.586Z,22.03
2024-01-18T00:33:46.632Z,22.03
2024-01-18T00:34:46.590Z,22.04
2024-01-18T00:35:46.643Z,22.05
2024-01-18T00:36:46.697Z,22.06
2024-01-18T00:37:46.694Z,22.06
2024-01-18T00:38:46.717Z,22.08
2024-01-18T00:39:46.819Z,22.08
2024-01-18T00:40:46.782Z,22.07
2024-01-18T00:41:46.793Z,22.07
2024-01-18T00:42:46.828Z,22.09
2024-01-18T00:43:46.858Z,22.10
2024-01-18T00:44:47.417Z,22.10
2024-01-18T00:45:46.960Z,22.10
2024-01-18T00:46:46.963Z,22.11
2024-01-18T00:47:47.051Z,22.10
2024-01-18T00:48:47.150Z,22.11
2024-01-18T00:49:47.141Z,22.11
2024-01-18T00:50:47.119Z,22.12
2024-01-18T00:51:47.216Z,22.13
2024-01-18T00:52:47.162Z,22.13
2024-01-18T00:53:47.206Z,22.14
2024-01-18T00:54:47.225Z,22.13
2024-01-18T00:55:47.277Z,22.14
2024-01-18T00:56:47.296Z,22.15
2024-01-18T00:57:47.330Z,22.15
2024-01-18T00:58:47.419Z,22.15
2024-01-18T00:59:47.409Z,22.16
2024-01-18T01:00:47.514Z,22.18
2024-01-18T01:01:47.470Z,22.17
2024-01-18T01:02:47.507Z,22.15
2024-01-18T01:03:47.639Z,22.17
2024-01-18T01:04:47.652Z,22.20
2024-01-18T01:05:47.619Z,22.19
2024-01-18T01:06:47.649Z,22.19
2024-01-18T01:07:47.757Z,22.20
2024-01-18T01:08:47.728Z,22.21
2024-01-18T01:09:47.774Z,22.22
2024-01-18T01:10:47.794Z,22.22
2024-01-18T01:11:47.829Z,22.22
2024-01-18T01:12:47.860Z,22.22
2024-01-18T01:13:47.907Z,22.23
2024-01-18T01:14:47.979Z,22.24
2024-01-18T01:15:48.138Z,22.24
2024-01-18T01:16:48.008Z,22.25
2024-01-18T01:17:48.116Z,22.26
2024-01-18T01:18:48.111Z,22.26
2024-01-18T01:19:48.149Z,22.26
2024-01-18T01:20:48.141Z,22.27
2024-01-18T01:21:48.172Z,22.27
2024-01-18T01:22:48.230Z,22.26
2024-01-18T01:23:48.245Z,22.28
2024-01-18T01:24:48.291Z,22.28
2024-01-18T01:25:48.313Z,22.29
2024-01-18T01:26:48.342Z,22.29
2024-01-18T01:27:48.459Z,22.30
2024-01-18T01:28:48.381Z,22.30
2024-01-18T01:29:48.433Z,22.31
2024-01-18T01:30:48.510Z,22.31
2024-01-18T01:31:48.493Z,22.32
2024-01-18T01:32:48.529Z,22.34
2024-01-18T01:33:48.664Z,22.34
2024-01-18T01:34:48.635Z,22.35
2024-01-18T01:35:48.631Z,22.36
2024-01-18T01:36:48.640Z,22.36
2024-01-18T01:37:48.675Z,22.36
2024-01-18T01:38:48.727Z,22.37
2024-01-18T01:39:48.856Z,22.37
2024-01-18T01:40:48.808Z,22.39
2024-01-18T01:41:48.826Z,22.39
2024-01-18T01:42:48.910Z,22.39
2024-01-18T01:43:48.900Z,22.40
2024-01-18T01:44:48.911Z,22.41
2024-01-18T01:45:48.957Z,22.41
2024-01-18T01:46:49.009Z,22.40
2024-01-18T01:47:49.044Z,22.41
2024-01-18T01:48:49.108Z,22.45
2024-01-18T01:49:49.169Z,22.43
2024-01-18T01:50:49.136Z,22.42
2024-01-18T01:51:49.314Z,22.44
2024-01-18T01:52:49.206Z,22.45
2024-01-18T01:53:49.254Z,22.46
2024-01-18T01:54:49.278Z,22.46
2024-01-18T01:55:49.306Z,22.47
2024-01-18T01:56:49.357Z,22.47
2024-01-18T01:57:49.403Z,22.47
2024-01-18T01:58:49.408Z,22.46
2024-01-18T01:59:49.460Z,22.48
2024-01-18T02:00:49.838Z,22.48
2024-01-18T02:01:49.518Z,22.53
2024-01-18T02:02:49.546Z,22.53
2024-01-18T02:03:49.791Z,22.52
2024-01-18T02:04:49.608Z,22.55
2024-01-18T02:05:49.706Z,22.57
2024-01-18T02:06:49.818Z,22.57
2024-01-18T02:07:49.739Z,22.58
2024-01-18T02:08:49.744Z,22.56
2024-01-18T02:09:49.847Z,22.60
2024-01-18T02:10:49.817Z,22.57
2024-01-18T02:11:49.853Z,22.61
2024-01-18T02:12:49.891Z,22.60
2024-01-18T02:13:49.937Z,22.62
2024-01-18T02:14:49.972Z,22.61
2024-01-18T02:15:50.132Z,22.63
2024-01-18T02:16:50.036Z,22.62
2024-01-18T02:17:50.096Z,22.63
2024-01-18T02:18:50.207Z,22.64
2024-01-18T02:19:50.241Z,22.65
2024-01-18T02:20:50.192Z,22.66
2024-01-18T02:21:50.221Z,22.66
2024-01-18T02:22:50.292Z,22.67
2024-01-18T02:23:50.290Z,22.67
2024-01-18T02:24:50.321Z,22.68
2024-01-18T02:25:50.359Z,22.68
2024-01-18T02:26:50.389Z,22.70
2024-01-18T02:27:50.529Z,22.70
2024-01-18T02:28:50.462Z,22.70
2024-01-18T02:29:50.500Z,22.70
2024-01-18T02:30:50.568Z,22.72
2024-01-18T02:31:50.557Z,22.72
2024-01-18T02:32:50.658Z,22.74
2024-01-18T02:33:50.708Z,22.74
2024-01-18T02:34:50.654Z,22.75
2024-01-18T02:35:50.671Z,22.74
2024-01-18T02:36:50.696Z,22.77
2024-01-18T02:37:50.737Z,22.77
2024-01-18T02:38:50.782Z,22.79
2024-01-18T02:39:50.880Z,22.76
2024-01-18T02:40:50.824Z,22.80
2024-01-18T02:41:50.861Z,22.80
2024-01-18T02:42:50.883Z,22.81
2024-01-18T02:43:50.939Z,22.81
2024-01-18T02:44:50.946Z,22.83
2024-01-18T02:45:50.985Z,22.84
2024-01-18T02:46:51.013Z,22.84
2024-01-18T02:47:51.078Z,22.84
2024-01-18T02:48:51.198Z,22.86
2024-01-18T02:49:51.155Z,22.88
2024-01-18T02:50:51.140Z,22.87
2024-01-18T02:51:51.285Z,22.88
2024-01-18T02:52:51.223Z,22.87
2024-01-18T02:53:51.249Z,22.88
2024-01-18T02:54:51.285Z,22.89
2024-01-18T02:55:51.409Z,22.91
2024-01-18T02:56:51.357Z,22.91
2024-01-18T02:57:51.385Z,22.89
2024-01-18T02:58:51.430Z,22.91
2024-01-18T02:59:51.462Z,22.96
2024-01-18T03:00:51.581Z,22.92
2024-01-18T03:01:51.516Z,22.96
2024-01-18T03:02:51.628Z,22.96
2024-01-18T03:03:51.736Z,22.95
2024-01-18T03:04:51.721Z,22.97
2024-01-18T03:05:51.671Z,22.97
2024-01-18T03:06:51.696Z,22.98
2024-01-18T03:07:51.757Z,22.98
2024-01-18T03:08:51.772Z,23.00
2024-01-18T03:09:51.769Z,23.03
2024-01-18T03:10:51.801Z,23.02
2024-01-18T03:11:51.828Z,23.03
2024-01-18T03:12:51.872Z,23.04
2024-01-18T03:13:52.012Z,23.05
2024-01-18T03:14:51.908Z,23.05
2024-01-18T03:15:51.954Z,23.04
2024-01-18T03:16:52.041Z,23.08
2024-01-18T03:17:52.070Z,23.07
2024-01-18T03:18:52.251Z,23.09
2024-01-18T03:19:52.132Z,23.08
2024-01-18T03:20:52.075Z,23.09
2024-01-18T03:21:52.097Z,23.08
2024-01-18T03:22:52.198Z,23.10
2024-01-18T03:23:52.174Z,23.09
2024-01-18T03:24:52.970Z,23.09
2024-01-18T03:25:52.319Z,23.10
2024-01-18T03:26:52.251Z,23.13
2024-01-18T03:27:52.291Z,23.10
2024-01-18T03:28:52.319Z,23.11
2024-01-18T03:29:52.353Z,23.13
2024-01-18T03:30:52.469Z,23.13
2024-01-18T03:31:52.424Z,23.15
2024-01-18T03:32:52.478Z,23.15
2024-01-18T03:33:52.561Z,23.15
2024-01-18T03:34:52.521Z,23.15
2024-01-18T03:35:52.564Z,23.13
2024-01-18T03:36:52.574Z,23.15
2024-01-18T03:37:52.731Z,23.18
2024-01-18T03:38:52.652Z,23.18
2024-01-18T03:39:52.655Z,23.20
2024-01-18T03:40:52.697Z,23.19
2024-01-18T03:41:52.754Z,23.20
2024-01-18T03:42:52.768Z,23.21
2024-01-18T03:43:52.809Z,23.19
2024-01-18T03:44:52.840Z,23.20
2024-01-18T03:45:52.868Z,23.21
2024-01-18T03:46:52.906Z,23.20
2024-01-18T03:47:52.934Z,23.20
2024-01-18T03:48:53.071Z,23.20
2024-01-18T03:49:53.144Z,23.21
2024-01-18T03:50:53.030Z,23.21
2024-01-18T03:51:53.081Z,23.22
2024-01-18T03:52:53.077Z,23.23
2024-01-18T03:53:53.116Z,23.23
2024-01-18T03:54:53.130Z,23.23
2024-01-18T03:55:53.176Z,23.25
2024-01-18T03:56:53.175Z,23.24
2024-01-18T03:57:53.201Z,23.27
2024-01-18T03:58:53.244Z,23.28
2024-01-18T03:59:53.280Z,23.28
2024-01-18T04:00:53.353Z,23.28
2024-01-18T04:01:53.370Z,23.28
2024-01-18T04:02:53.372Z,23.29
2024-01-18T04:03:53.492Z,23.32
2024-01-18T04:04:53.425Z,23.29
2024-01-18T04:05:53.487Z,23.33
2024-01-18T04:06:53.513Z,23.33
2024-01-18T04:07:53.490Z,23.36
2024-01-18T04:08:53.519Z,23.34
2024-01-18T04:09:53.550Z,23.34
2024-01-18T04:10:53.591Z,23.38
2024-01-18T04:11:53.624Z,23.37
2024-01-18T04:12:53.635Z,23.36
2024-01-18T04:13:53.701Z,23.40
2024-01-18T04:14:53.743Z,23.39
2024-01-18T04:15:53.776Z,23.38
2024-01-18T04:16:53.772Z,23.38
2024-01-18T04:17:53.849Z,23.38
2024-01-18T04:18:53.873Z,23.38
2024-01-18T04:19:53.922Z,23.38
2024-01-18T04:20:54.540Z,23.36
2024-01-18T04:21:53.969Z,23.37
2024-01-18T04:22:53.929Z,23.36
2024-01-18T04:23:53.948Z,23.35
2024-01-18T04:24:53.962Z,23.37
2024-01-18T04:25:53.985Z,23.35
2024-01-18T04:26:54.014Z,23.34
2024-01-18T04:27:54.183Z,23.33
2024-01-18T04:28:54.053Z,23.34
2024-01-18T04:29:54.060Z,23.33
2024-01-18T04:30:54.081Z,23.33
2024-01-18T04:31:54.109Z,23.30
2024-01-18T04:33:01.575Z,23.33
2024-01-18T04:34:01.410Z,23.32
2024-01-18T04:35:01.485Z,23.32
2024-01-18T04:36:01.486Z,23.32
2024-01-18T04:37:01.382Z,23.32
2024-01-18T04:38:01.399Z,23.34
2024-01-18T04:39:01.461Z,23.31
2024-01-18T04:40:01.421Z,23.32
2024-01-18T04:41:01.416Z,23.33
2024-01-18T04:42:01.494Z,23.33
2024-01-18T04:43:01.454Z,23.32
2024-01-18T04:44:01.509Z,23.31
2024-01-18T04:45:01.524Z,23.32
2024-01-18T04:46:01.546Z,23.33
2024-01-18T04:47:01.515Z,23.31
2024-01-18T04:48:01.652Z,23.33
2024-01-18T04:49:01.650Z,23.31
2024-01-18T04:50:01.587Z,23.33
2024-01-18T04:51:01.575Z,23.35
2024-01-18T04:52:01.563Z,23.33
2024-01-18T04:53:01.664Z,23.34
2024-01-18T04:54:01.615Z,23.34
2024-01-18T04:55:01.641Z,23.35
2024-01-18T04:56:01.618Z,23.34
2024-01-18T04:57:01.624Z,23.37
2024-01-18T04:58:01.580Z,23.38
2024-01-18T04:59:01.631Z,23.36
2024-01-18T05:00:01.831Z,23.37
2024-01-18T05:01:01.708Z,23.37
2024-01-18T05:02:01.655Z,23.38
2024-01-18T05:03:01.700Z,23.40
2024-01-18T05:04:01.717Z,23.40
2024-01-18T05:05:01.911Z,23.39
2024-01-18T05:06:01.906Z,23.41
2024-01-18T05:07:01.797Z,23.41
2024-01-18T05:08:01.676Z,23.42
2024-01-18T05:09:01.729Z,23.42
2024-01-18T05:10:01.787Z,23.41
2024-01-18T05:11:01.694Z,23.41
2024-01-18T05:12:01.739Z,23.42
2024-01-18T05:13:01.721Z,23.40
2024-01-18T05:14:01.752Z,23.41
2024-01-18T05:15:01.799Z,23.41
2024-01-18T05:16:01.792Z,23.40
2024-01-18T05:17:01.753Z,23.40
2024-01-18T05:18:02.311Z,23.41
2024-01-18T05:19:01.889Z,23.40
2024-01-18T05:20:01.850Z,23.38
2024-01-18T05:21:01.854Z,23.35
2024-01-18T05:22:01.787Z,23.37
2024-01-18T05:23:01.810Z,23.38
2024-01-18T05:24:01.866Z,23.39
2024-01-18T05:25:01.844Z,23.38
2024-01-18T05:26:01.883Z,23.36
2024-01-18T05:27:01.881Z,23.38
2024-01-18T05:28:01.838Z,23.39
2024-01-18T05:29:01.870Z,23.36
2024-01-18T05:30:02.115Z,23.37
2024-01-18T05:31:01.874Z,23.35
2024-01-18T05:32:01.873Z,23.37
2024-01-18T05:33:02.005Z,23.38
2024-01-18T05:34:02.023Z,23.38
2024-01-18T05:35:02.018Z,23.38
2024-01-18T05:36:02.030Z,23.39
2024-01-18T05:37:01.935Z,23.39
2024-01-18T05:38:01.960Z,23.36
2024-01-18T05:39:02.018Z,23.36
2024-01-18T05:40:01.970Z,23.37
2024-01-18T05:41:02.003Z,23.36
2024-01-18T05:42:01.999Z,23.36
2024-01-18T05:43:02.009Z,23.36
2024-01-18T05:44:02.025Z,23.35
2024-01-18T05:45:02.123Z,23.38
2024-01-18T05:46:02.038Z,23.36
2024-01-18T05:47:02.039Z,23.39
2024-01-18T05:48:02.171Z,23.37
2024-01-18T05:49:02.248Z,23.37
2024-01-18T05:50:02.156Z,23.36
2024-01-18T05:51:02.124Z,23.35
2024-01-18T05:52:02.249Z,23.35
2024-01-18T05:53:02.153Z,23.36
2024-01-18T05:54:02.177Z,23.34
2024-01-18T05:55:02.137Z,23.36
2024-01-18T05:56:02.380Z,23.36
2024-01-18T05:57:02.245Z,23.34
2024-01-18T05:58:02.211Z,23.36
2024-01-18T05:59:02.336Z,23.36
2024-01-18T06:00:02.311Z,23.34
2024-01-18T06:01:02.510Z,23.34
2024-01-18T06:02:02.394Z,23.34
2024-01-18T06:03:02.441Z,23.34
2024-01-18T06:04:02.620Z,23.34
2024-01-18T06:05:02.530Z,23.34
2024-01-18T06:06:02.751Z,23.36
2024-01-18T06:07:02.576Z,23.34
2024-01-18T06:08:02.456Z,23.35
2024-01-18T06:09:02.559Z,23.36
2024-01-18T06:10:02.508Z,23.34
2024-01-18T06:11:02.508Z,23.32
2024-01-18T06:12:02.617Z,23.35
2024-01-18T06:13:02.548Z,23.33
2024-01-18T06:14:02.596Z,23.34
2024-01-18T06:15:02.648Z,23.32
2024-01-18T06:16:02.719Z,23.32
2024-01-18T06:17:02.637Z,23.32
2024-01-18T06:18:02.746Z,23.31
2024-01-18T06:19:02.806Z,23.34
2024-01-18T06:20:02.859Z,23.34
2024-01-18T06:21:02.776Z,23.32
2024-01-18T06:22:02.753Z,23.36
2024-01-18T06:23:02.784Z,23.34
2024-01-18T06:24:02.834Z,23.50
2024-01-18T06:25:02.806Z,23.43
2024-01-18T06:26:02.816Z,23.34
2024-01-18T06:27:02.915Z,23.36
2024-01-18T06:28:02.870Z,23.57
2024-01-18T06:29:03.010Z,24.06
2024-01-18T06:30:03.007Z,24.19
2024-01-18T06:31:02.887Z,24.20
2024-01-18T06:32:05.504Z,24.48
2024-01-18T06:33:02.972Z,24.83
2024-01-18T06:34:03.393Z,24.86
2024-01-18T06:35:02.949Z,24.99
2024-01-18T06:36:02.922Z,24.96
2024-01-18T06:37:02.899Z,25.18
2024-01-18T06:38:02.886Z,25.48
2024-01-18T06:39:03.069Z,25.59
2024-01-18T06:40:02.910Z,25.96
2024-01-18T06:41:02.933Z,26.37
2024-01-18T06:42:02.936Z,26.46
2024-01-18T06:43:02.931Z,26.52
2024-01-18T06:44:03.029Z,26.25
2024-01-18T06:45:02.995Z,26.09
2024-01-18T06:46:02.929Z,25.70
2024-01-18T06:47:03.022Z,25.85
2024-01-18T06:48:03.019Z,25.81
2024-01-18T06:49:03.055Z,26.13
2024-01-18T06:50:03.014Z,25.80
2024-01-18T06:51:02.995Z,25.97
2024-01-18T06:52:02.952Z,26.05
2024-01-18T06:53:02.958Z,26.14
2024-01-18T06:54:03.034Z,26.33
2024-01-18T06:55:03.130Z,26.46
2024-01-18T06:56:03.084Z,26.06
2024-01-18T06:57:03.174Z,26.02
2024-01-18T06:58:03.301Z,26.07
2024-01-18T06:59:03.224Z,26.14
2024-01-18T07:00:03.307Z,26.85
2024-01-18T07:01:03.489Z,27.21
2024-01-18T07:02:03.322Z,27.02
2024-01-18T07:03:03.443Z,27.00
2024-01-18T07:04:03.512Z,27.01
2024-01-18T07:05:03.641Z,27.13
2024-01-18T07:06:03.619Z,27.15
2024-01-18T07:07:03.611Z,26.94
2024-01-18T07:08:03.554Z,26.73
2024-01-18T07:09:03.681Z,26.73
2024-01-18T07:10:04.009Z,26.60
2024-01-18T07:11:03.676Z,26.45
2024-01-18T07:12:03.736Z,26.42
2024-01-18T07:13:03.751Z,26.23
2024-01-18T07:14:03.807Z,26.58
2024-01-18T07:15:03.882Z,26.39
2024-01-18T07:16:03.825Z,26.42
2024-01-18T07:17:03.851Z,26.70
2024-01-18T07:18:03.985Z,26.68
2024-01-18T07:19:04.048Z,26.76
2024-01-18T07:20:03.914Z,26.67
2024-01-18T07:21:03.927Z,26.63
2024-01-18T07:22:03.982Z,26.81
2024-01-18T07:23:04.022Z,26.73
2024-01-18T07:24:04.144Z,26.76
2024-01-18T07:25:04.180Z,26.85
2024-01-18T07:26:04.263Z,26.84
2024-01-18T07:27:04.328Z,27.07
2024-01-18T07:28:04.396Z,27.65
2024-01-18T07:29:04.544Z,27.41
2024-01-18T07:30:04.660Z,27.10
2024-01-18T07:31:04.566Z,27.91
2024-01-18T07:32:04.616Z,27.97
2024-01-18T07:33:04.755Z,28.16
2024-01-18T07:34:04.838Z,27.85
2024-01-18T07:35:04.786Z,28.30
2024-01-18T07:36:04.888Z,28.35
2024-01-18T07:37:06.330Z,27.82
2024-01-18T07:38:04.886Z,27.73
2024-01-18T07:39:04.924Z,27.47
2024-01-18T07:40:04.879Z,27.45
2024-01-18T07:41:04.887Z,27.34
2024-01-18T07:42:04.900Z,27.37
2024-01-18T07:43:04.869Z,27.41
2024-01-18T07:44:04.907Z,27.29
2024-01-18T07:45:04.895Z,27.32
2024-01-18T07:46:04.843Z,27.54
2024-01-18T07:47:04.830Z,27.66
2024-01-18T07:48:04.904Z,27.61
2024-01-18T07:49:04.943Z,27.87
2024-01-18T07:50:14.150Z,28.06
2024-01-18T07:51:05.905Z,27.96
2024-01-18T07:52:04.800Z,28.10
2024-01-18T07:53:04.803Z,28.01
2024-01-18T07:54:04.855Z,28.17
2024-01-18T07:55:04.785Z,28.28
2024-01-18T07:56:04.772Z,28.36
2024-01-18T07:57:04.813Z,28.46
2024-01-18T07:58:04.751Z,28.52
2024-01-18T07:59:04.785Z,28.63
2024-01-18T08:00:05.068Z,29.00
2024-01-18T08:01:04.827Z,28.85
2024-01-18T08:02:04.727Z,28.77
2024-01-18T08:03:04.745Z,28.81
2024-01-18T08:04:04.822Z,28.72
2024-01-18T08:05:04.704Z,28.87
2024-01-18T08:06:04.862Z,29.40
2024-01-18T08:07:04.802Z,29.05
2024-01-18T08:08:04.758Z,28.80
2024-01-18T08:09:04.902Z,29.48
2024-01-18T08:10:04.826Z,29.42
2024-01-18T08:11:04.850Z,29.16
2024-01-18T08:12:04.917Z,29.18
2024-01-18T08:13:04.891Z,29.18
2024-01-18T08:14:04.927Z,29.63
2024-01-18T08:15:04.995Z,29.54
2024-01-18T08:16:04.956Z,29.65
2024-01-18T08:17:04.998Z,29.25
2024-01-18T08:18:05.090Z,27.68
2024-01-18T08:19:05.635Z,27.57
2024-01-18T08:20:05.160Z,26.83
2024-01-18T08:21:09.395Z,26.86
2024-01-18T08:22:06.198Z,26.91
2024-01-18T08:23:05.181Z,26.67
2024-01-18T08:24:05.236Z,26.88
2024-01-18T08:25:05.209Z,26.91
2024-01-18T08:26:05.251Z,27.14
2024-01-18T08:27:05.318Z,27.22
2024-01-18T08:28:05.273Z,27.88
2024-01-18T08:29:05.577Z,28.18
2024-01-18T08:30:05.585Z,28.38
2024-01-18T08:31:05.316Z,28.34
2024-01-18T08:32:05.322Z,28.18
2024-01-18T08:33:05.427Z,28.03
2024-01-18T08:34:05.488Z,27.99
2024-01-18T08:35:05.450Z,27.94
2024-01-18T08:36:05.512Z,28.31
2024-01-18T08:37:05.621Z,28.27
2024-01-18T08:38:05.512Z,28.08
2024-01-18T08:39:05.649Z,28.10
2024-01-18T08:40:05.664Z,27.91
2024-01-18T08:41:05.723Z,27.86
2024-01-18T08:42:05.812Z,28.03
2024-01-18T08:43:05.860Z,28.13
2024-01-18T08:44:05.939Z,28.12
2024-01-18T08:45:06.081Z,28.23
2024-01-18T08:46:06.048Z,28.02
2024-01-18T08:47:06.096Z,28.20
2024-01-18T08:48:06.197Z,28.01
2024-01-18T08:49:06.343Z,27.97
2024-01-18T08:50:06.375Z,27.72
2024-01-18T08:51:06.431Z,27.72
2024-01-18T08:52:06.577Z,27.56
2024-01-18T08:53:06.408Z,27.61
2024-01-18T08:54:06.493Z,27.73
2024-01-18T08:55:06.508Z,27.69
2024-01-18T08:56:06.530Z,27.77
2024-01-18T08:57:06.613Z,28.10
2024-01-18T08:58:06.658Z,28.30
2024-01-18T08:59:06.705Z,28.08
2024-01-18T09:00:06.759Z,27.86
2024-01-18T09:01:06.916Z,27.90
2024-01-18T09:02:14.204Z,27.99
2024-01-18T09:03:07.917Z,28.15
2024-01-18T09:04:06.914Z,28.06
2024-01-18T09:05:07.023Z,27.90
2024-01-18T09:06:06.898Z,28.23
2024-01-18T09:07:06.865Z,28.16
2024-01-18T09:08:07.320Z,28.16
2024-01-18T09:09:06.894Z,27.92
2024-01-18T09:10:06.854Z,28.07
2024-01-18T09:11:06.854Z,28.68
2024-01-18T09:12:06.868Z,28.42
2024-01-18T09:13:06.845Z,28.20
2024-01-18T09:14:06.868Z,28.24
2024-01-18T09:15:06.904Z,28.33
2024-01-18T09:16:06.876Z,28.58
2024-01-18T09:17:06.868Z,28.42
2024-01-18T09:18:06.991Z,28.49
2024-01-18T09:19:14.323Z,28.27
2024-01-18T09:20:08.033Z,28.56
2024-01-18T09:21:06.925Z,29.01
2024-01-18T09:22:06.931Z,29.02
2024-01-18T09:23:12.960Z,27.59
2024-01-18T09:24:07.953Z,27.24
2024-01-18T09:25:06.962Z,27.66
2024-01-18T09:26:06.939Z,28.44
2024-01-18T09:27:07.014Z,28.67
2024-01-18T09:28:06.992Z,29.38
2024-01-18T09:29:07.057Z,29.80
2024-01-18T09:30:07.103Z,30.66
2024-01-18T09:31:07.114Z,31.33
2024-01-18T09:32:07.144Z,32.03
2024-01-18T09:33:07.277Z,32.63
2024-01-18T09:34:07.564Z,33.00
2024-01-18T09:35:07.444Z,33.24
2024-01-18T09:36:07.485Z,33.46
2024-01-18T09:37:07.619Z,33.66
2024-01-18T09:38:07.593Z,33.35
2024-01-18T09:39:08.117Z,32.98
2024-01-18T09:40:07.909Z,32.49
2024-01-18T09:41:07.890Z,32.06
2024-01-18T09:42:08.179Z,31.65
2024-01-18T09:43:08.053Z,31.25
2024-01-18T09:44:08.110Z,30.92
2024-01-18T09:45:08.194Z,30.56
2024-01-18T09:46:08.272Z,30.17
2024-01-18T09:47:08.346Z,29.88
2024-01-18T09:48:08.516Z,29.62
2024-01-18T09:49:08.509Z,29.35
2024-01-18T09:50:08.616Z,29.19
2024-01-18T09:51:08.640Z,28.95
2024-01-18T09:52:08.649Z,28.79
2024-01-18T09:53:08.709Z,28.63
2024-01-18T09:54:08.770Z,28.47
2024-01-18T09:55:08.773Z,28.34
2024-01-18T09:56:08.765Z,28.20
2024-01-18T09:57:08.854Z,28.14
2024-01-18T09:58:08.916Z,28.12
2024-01-18T09:59:08.999Z,27.96
2024-01-18T10:00:09.921Z,27.86
2024-01-18T10:01:09.254Z,27.82
2024-01-18T10:02:09.207Z,27.85
2024-01-18T10:03:09.349Z,27.79
2024-01-18T10:04:09.362Z,27.70
2024-01-18T10:05:09.410Z,27.63
2024-01-18T10:06:09.608Z,27.56
2024-01-18T10:07:09.842Z,27.50
2024-01-18T10:08:09.767Z,27.42
2024-01-18T10:09:09.633Z,27.33
2024-01-18T10:10:09.663Z,27.34
2024-01-18T10:11:09.707Z,27.29
2024-01-18T10:12:11.105Z,27.23
2024-01-18T10:13:09.758Z,27.23
2024-01-18T10:14:10.081Z,27.22
2024-01-18T10:15:09.862Z,27.18
2024-01-18T10:16:09.860Z,27.20
2024-01-18T10:17:09.801Z,27.18
2024-01-18T10:18:09.920Z,27.12
2024-01-18T10:19:09.866Z,27.15
2024-01-18T10:20:09.850Z,27.12
2024-01-18T10:21:09.852Z,27.12
2024-01-18T10:22:09.832Z,27.04
2024-01-18T10:23:09.824Z,27.00
2024-01-18T10:24:09.878Z,26.95
2024-01-18T10:25:10.089Z,27.13
2024-01-18T10:26:09.873Z,27.78
2024-01-18T10:27:09.909Z,27.83
2024-01-18T10:28:09.886Z,27.70
2024-01-18T10:29:09.893Z,27.84
2024-01-18T10:30:10.125Z,27.72
2024-01-18T10:31:09.885Z,27.74
2024-01-18T10:32:09.888Z,27.91
2024-01-18T10:33:10.086Z,27.83
2024-01-18T10:34:10.070Z,27.82
2024-01-18T10:35:10.115Z,27.88
2024-01-18T10:36:10.093Z,27.90
2024-01-18T10:37:09.939Z,28.07
2024-01-18T10:38:09.931Z,28.12
2024-01-18T10:39:09.939Z,28.16
2024-01-18T10:40:09.926Z,28.29
2024-01-18T10:41:09.962Z,28.37
2024-01-18T10:42:09.977Z,28.75
2024-01-18T10:43:09.993Z,28.65
2024-01-18T10:44:11.630Z,28.77
2024-01-18T10:45:09.985Z,28.91
2024-01-18T10:46:09.993Z,28.95
2024-01-18T10:47:10.002Z,28.83
2024-01-18T10:48:10.213Z,29.10
2024-01-18T10:49:09.983Z,29.20
2024-01-18T10:50:10.006Z,29.25
2024-01-18T10:51:10.056Z,29.38
2024-01-18T10:52:09.944Z,29.41
2024-01-18T10:53:09.938Z,29.43
2024-01-18T10:54:18.066Z,29.60
2024-01-18T10:55:11.048Z,29.75
2024-01-18T10:56:10.027Z,29.78
2024-01-18T10:57:09.944Z,29.73
2024-01-18T10:58:09.953Z,30.11
2024-01-18T10:59:09.931Z,30.01
2024-01-18T11:00:10.021Z,30.25
2024-01-18T11:01:09.993Z,29.98
2024-01-18T11:02:09.935Z,30.33
2024-01-18T11:03:10.028Z,30.24
2024-01-18T11:04:09.915Z,30.41
2024-01-18T11:05:10.015Z,30.45
2024-01-18T11:06:10.052Z,31.23
2024-01-18T11:07:10.040Z,30.59
2024-01-18T11:08:09.915Z,30.67
2024-01-18T11:09:09.990Z,30.77
2024-01-18T11:10:09.981Z,30.76
2024-01-18T11:11:09.990Z,30.95
2024-01-18T11:12:10.094Z,30.94
2024-01-18T11:13:10.056Z,31.09
2024-01-18T11:14:10.129Z,31.10
2024-01-18T11:15:10.625Z,30.90
2024-01-18T11:16:10.181Z,31.02
2024-01-18T11:17:10.175Z,31.24
2024-01-18T11:18:10.329Z,31.19
2024-01-18T11:19:10.381Z,31.14
2024-01-18T11:20:10.294Z,31.52
2024-01-18T11:21:10.884Z,32.00
2024-01-18T11:22:10.330Z,32.39
2024-01-18T11:23:10.337Z,31.77
2024-01-18T11:24:10.409Z,32.44
2024-01-18T11:25:10.636Z,32.16
2024-01-18T11:26:10.410Z,31.32
2024-01-18T11:27:10.449Z,31.19
2024-01-18T11:28:10.455Z,31.10
2024-01-18T11:29:10.484Z,30.90
2024-01-18T11:30:10.579Z,30.39
2024-01-18T11:31:10.617Z,30.02
2024-01-18T11:32:10.515Z,30.15
2024-01-18T11:33:10.581Z,29.76
2024-01-18T11:34:10.594Z,28.77
2024-01-18T11:35:10.645Z,28.56
2024-01-18T11:36:10.729Z,28.89
2024-01-18T11:37:10.684Z,28.65
2024-01-18T11:38:10.683Z,28.73
2024-01-18T11:39:10.749Z,28.70
2024-01-18T11:40:10.789Z,28.73
2024-01-18T11:41:10.808Z,28.88
2024-01-18T11:42:10.833Z,28.98
2024-01-18T11:43:10.831Z,29.01
2024-01-18T11:44:10.873Z,28.84
2024-01-18T11:45:11.602Z,28.89
2024-01-18T11:46:11.441Z,28.78
2024-01-18T11:47:10.952Z,28.82
2024-01-18T11:48:11.037Z,28.87
2024-01-18T11:49:11.139Z,28.82
2024-01-18T11:50:11.094Z,28.96
2024-01-18T11:51:11.130Z,28.72
2024-01-18T11:52:11.130Z,28.73
2024-01-18T11:53:11.164Z,28.73
2024-01-18T11:54:11.257Z,28.69
2024-01-18T11:55:11.241Z,28.76
2024-01-18T11:56:11.285Z,28.69
2024-01-18T11:57:11.364Z,28.63
2024-01-18T11:58:11.367Z,28.65
2024-01-18T11:59:11.420Z,28.67
2024-01-18T12:00:11.462Z,28.70
2024-01-18T12:01:11.569Z,28.64
2024-01-18T12:02:11.545Z,28.82
2024-01-18T12:03:11.593Z,28.64
2024-01-18T12:04:11.686Z,28.65
2024-01-18T12:05:11.746Z,28.62
2024-01-18T12:06:11.745Z,28.56
2024-01-18T12:07:11.769Z,28.59
2024-01-18T12:08:11.781Z,28.54
2024-01-18T12:09:11.835Z,28.48
2024-01-18T12:10:11.904Z,28.62
2024-01-18T12:11:11.896Z,28.71
2024-01-18T12:12:11.974Z,29.45
2024-01-18T12:13:12.044Z,29.94
2024-01-18T12:14:12.033Z,29.41
2024-01-18T12:15:12.160Z,28.65
2024-01-18T12:16:12.157Z,28.66
2024-01-18T12:17:12.166Z,29.11
2024-01-18T12:18:12.249Z,28.78
2024-01-18T12:19:12.350Z,28.52
2024-01-18T12:20:12.291Z,28.50
2024-01-18T12:21:12.344Z,28.77
2024-01-18T12:22:12.385Z,28.39
2024-01-18T12:23:12.412Z,28.62
2024-01-18T12:24:12.500Z,28.59
2024-01-18T12:25:12.518Z,28.35
2024-01-18T12:26:12.565Z,28.37
2024-01-18T12:27:13.171Z,28.44
2024-01-18T12:28:12.658Z,28.31
2024-01-18T12:29:12.707Z,28.25
2024-01-18T12:30:12.790Z,28.33
2024-01-18T12:31:12.790Z,28.28
2024-01-18T12:32:12.888Z,28.24
2024-01-18T12:33:13.076Z,28.14
2024-01-18T12:34:13.122Z,28.26
2024-01-18T12:35:12.999Z,28.16
2024-01-18T12:36:13.113Z,28.18
2024-01-18T12:37:13.105Z,28.15
2024-01-18T12:38:13.141Z,28.13
2024-01-18T12:39:13.216Z,28.10
2024-01-18T12:40:13.225Z,28.12
2024-01-18T12:41:13.331Z,28.10
2024-01-18T12:42:13.406Z,28.08
2024-01-18T12:43:13.401Z,28.11
2024-01-18T12:44:13.459Z,27.94
2024-01-18T12:45:13.508Z,27.99
2024-01-18T12:46:13.545Z,28.57
2024-01-18T12:47:13.607Z,29.26
2024-01-18T12:48:13.763Z,28.64
2024-01-18T12:49:13.848Z,28.80
2024-01-18T12:50:13.852Z,29.18
2024-01-18T12:51:13.853Z,29.11
2024-01-18T12:52:13.868Z,29.01
2024-01-18T12:53:13.919Z,28.78